createdAt,value
2022-08-22T00:02:17.547Z,6.25
2022-08-22T00:02:42.057Z,3.92
2022-08-22T00:02:55.978Z,5.05
2022-08-22T00:03:01.345Z,4.90
2022-08-22T00:03:03.072Z,3.87
2022-08-22T00:04:53.050Z,6.33
2022-08-22T00:07:28.647Z,7.07
2022-08-22T00:10:11.627Z,7.13
2022-08-22T00:13:12.114Z,7.07
2022-08-22T00:15:52.547Z,7.65
2022-08-22T00:18:25.128Z,6.30
2022-08-22T00:20:57.578Z,6.90
2022-08-22T00:23:52.584Z,6.00
2022-08-22T00:26:22.094Z,5.93
2022-08-22T00:28:56.238Z,6.38
2022-08-22T00:31:29.050Z,5.63
2022-08-22T00:34:04.586Z,5.40
2022-08-22T00:36:39.318Z,6.78
2022-08-22T00:39:36.309Z,5.85
2022-08-22T00:42:33.702Z,6.00
2022-08-22T00:45:03.212Z,5.90
2022-08-22T00:47:38.731Z,6.13
2022-08-22T00:50:31.561Z,6.18
2022-08-22T00:53:18.053Z,5.82
2022-08-22T00:56:20.435Z,5.90
2022-08-22T00:58:52.976Z,5.87
2022-08-22T01:01:27.253Z,7.85
2022-08-22T01:04:14.635Z,7.72
2022-08-22T01:07:16.370Z,7.45
2022-08-22T01:09:58.367Z,8.00
2022-08-22T01:12:46.408Z,7.33
2022-08-22T01:15:19.649Z,7.65
2022-08-22T01:18:09.358Z,7.60
2022-08-22T01:21:26.458Z,7.50
2022-08-22T01:24:14.747Z,7.57
2022-08-22T01:27:05.058Z,5.50
2022-08-22T01:29:57.128Z,6.43
2022-08-22T01:32:39.543Z,5.95
2022-08-22T01:35:23.000Z,5.70
2022-08-22T01:37:59.660Z,5.80
2022-08-22T01:41:13.118Z,5.77
2022-08-22T01:44:00.619Z,6.03
2022-08-22T01:46:52.597Z,6.32
2022-08-22T01:49:26.437Z,6.93
2022-08-22T01:52:05.507Z,6.45
2022-08-22T01:54:54.785Z,6.93
2022-08-22T01:57:23.383Z,6.60
2022-08-22T01:59:55.749Z,6.82
2022-08-22T02:02:36.446Z,6.95
2022-08-22T02:05:13.104Z,6.88
2022-08-22T02:07:48.121Z,7.30
2022-08-22T02:10:41.438Z,6.28
2022-08-22T02:13:13.689Z,7.15
2022-08-22T02:15:40.155Z,7.70
2022-08-22T02:18:06.534Z,7.43
2022-08-22T02:21:03.036Z,7.83
2022-08-22T02:23:55.986Z,6.65
2022-08-22T02:26:26.010Z,7.25
2022-08-22T02:29:06.564Z,7.15
2022-08-22T02:31:44.498Z,7.13
2022-08-22T02:34:31.211Z,7.47
2022-08-22T02:37:18.124Z,7.43
2022-08-22T02:40:06.245Z,7.20
2022-08-22T02:42:41.546Z,7.25
2022-08-22T02:45:25.003Z,6.38
2022-08-22T02:48:00.203Z,6.67
2022-08-22T02:50:53.745Z,6.57
2022-08-22T02:53:46.311Z,6.80
2022-08-22T02:56:18.721Z,6.97
2022-08-22T02:59:22.555Z,6.53
2022-08-22T03:01:49.106Z,6.37
2022-08-22T03:04:30.620Z,6.22
2022-08-22T03:07:07.796Z,6.20
2022-08-22T03:09:52.215Z,6.20
2022-08-22T03:12:35.053Z,6.63
2022-08-22T03:15:09.969Z,6.20
2022-08-22T03:17:50.712Z,6.15
2022-08-22T03:20:43.207Z,6.63
2022-08-22T03:23:36.256Z,6.95
2022-08-22T03:26:15.012Z,5.97
2022-08-22T03:28:59.853Z,5.93
2022-08-22T03:31:28.748Z,6.32
2022-08-22T03:34:27.077Z,6.28
2022-08-22T03:37:11.307Z,5.72
2022-08-22T03:39:47.161Z,6.03
2022-08-22T03:42:35.522Z,6.50
2022-08-22T03:45:22.935Z,6.13
2022-08-22T03:48:02.419Z,6.00
2022-08-22T03:50:47.572Z,6.32
2022-08-22T03:53:26.246Z,6.18
2022-08-22T03:56:25.402Z,6.20
2022-08-22T03:59:22.310Z,6.05
2022-08-22T04:02:42.545Z,6.07
2022-08-22T04:05:10.397Z,6.07
2022-08-22T04:08:01.705Z,5.97
2022-08-22T04:10:47.371Z,6.00
2022-08-22T04:13:27.787Z,6.45
2022-08-22T04:16:31.928Z,6.25
2022-08-22T04:19:36.194Z,6.20
2022-08-22T04:22:36.173Z,7.00
2022-08-22T04:25:08.501Z,6.47
2022-08-22T04:27:57.005Z,6.38
2022-08-22T04:30:33.270Z,6.40
2022-08-22T04:33:10.895Z,6.75
2022-08-22T04:35:44.863Z,6.68
2022-08-22T04:38:30.205Z,6.33
2022-08-22T04:41:13.598Z,6.90
2022-08-22T04:43:56.719Z,6.40
2022-08-22T04:46:35.127Z,6.57
2022-08-22T04:49:23.016Z,6.20
2022-08-22T04:51:57.335Z,6.40
2022-08-22T04:54:45.826Z,6.47
2022-08-22T04:57:36.267Z,6.53
2022-08-22T05:00:10.245Z,7.28
2022-08-22T05:02:40.227Z,6.85
2022-08-22T05:05:15.629Z,7.63
2022-08-22T05:07:50.721Z,8.70
2022-08-22T05:10:21.942Z,7.50
2022-08-22T05:12:54.398Z,7.22
2022-08-22T05:15:27.857Z,6.70
2022-08-22T05:18:00.119Z,8.27
2022-08-22T05:20:28.392Z,7.97
2022-08-22T05:23:17.418Z,9.52
2022-08-22T05:25:47.269Z,8.30
2022-08-22T05:28:20.732Z,9.02
2022-08-22T05:30:48.826Z,8.20
2022-08-22T05:33:19.495Z,7.47
2022-08-22T05:35:57.892Z,7.78
2022-08-22T05:38:30.906Z,7.65
2022-08-22T05:41:06.811Z,7.63
2022-08-22T05:43:38.404Z,6.67
2022-08-22T05:46:09.907Z,7.68
2022-08-22T05:48:53.294Z,8.02
2022-08-22T05:51:27.009Z,7.03
2022-08-22T05:54:09.339Z,7.07
2022-08-22T05:56:41.182Z,6.87
2022-08-22T05:59:35.247Z,6.25
2022-08-22T06:02:01.752Z,7.57
2022-08-22T06:04:37.131Z,6.30
2022-08-22T06:07:14.699Z,6.85
2022-08-22T06:09:47.226Z,6.77
2022-08-22T06:12:21.821Z,6.88
2022-08-22T06:15:12.548Z,6.70
2022-08-22T06:17:49.870Z,5.53
2022-08-22T06:20:37.150Z,5.60
2022-08-22T06:23:07.550Z,5.33
2022-08-22T06:25:38.858Z,6.20
2022-08-22T06:28:12.400Z,5.93
2022-08-22T06:30:39.632Z,6.00
2022-08-22T06:33:12.839Z,5.65
2022-08-22T06:36:02.580Z,5.17
2022-08-22T06:38:35.622Z,5.97
2022-08-22T06:41:09.195Z,5.18
2022-08-22T06:43:42.484Z,6.10
2022-08-22T06:46:13.156Z,4.95
2022-08-22T06:48:41.302Z,5.00
2022-08-22T06:51:08.842Z,5.03
2022-08-22T06:53:47.913Z,5.38
2022-08-22T06:56:22.259Z,4.75
2022-08-22T06:58:54.507Z,4.50
2022-08-22T07:01:27.241Z,4.73
2022-08-22T07:03:59.429Z,4.40
2022-08-22T07:06:33.938Z,4.40
2022-08-22T07:09:00.689Z,4.68
2022-08-22T07:11:38.175Z,4.32
2022-08-22T07:14:11.573Z,4.30
2022-08-22T07:16:44.070Z,4.18
2022-08-22T07:19:30.782Z,4.65
2022-08-22T07:21:58.174Z,4.38
2022-08-22T07:24:31.726Z,3.85
2022-08-22T07:27:20.646Z,3.90
2022-08-22T07:30:04.007Z,3.80
2022-08-22T07:32:43.248Z,4.00
2022-08-22T07:35:09.843Z,3.70
2022-08-22T07:38:04.369Z,3.97
2022-08-22T07:40:49.239Z,4.43
2022-08-22T07:43:32.681Z,3.70
2022-08-22T07:46:07.514Z,4.05
2022-08-22T07:49:08.217Z,3.38
2022-08-22T07:51:43.147Z,3.15
2022-08-22T07:54:27.135Z,3.90
2022-08-22T07:57:01.250Z,3.10
2022-08-22T07:59:30.271Z,2.67
2022-08-22T08:02:00.110Z,2.08
2022-08-22T08:04:36.882Z,2.22
2022-08-22T08:07:08.471Z,2.07
2022-08-22T08:09:48.712Z,1.95
2022-08-22T08:12:16.169Z,2.28
2022-08-22T08:14:46.248Z,2.65
2022-08-22T08:17:32.307Z,1.67
2022-08-22T08:20:03.494Z,2.17
2022-08-22T08:22:31.081Z,1.88
2022-08-22T08:25:00.500Z,2.03
2022-08-22T08:27:50.207Z,2.13
2022-08-22T08:30:22.271Z,2.00
2022-08-22T08:32:57.592Z,1.80
2022-08-22T08:36:03.539Z,2.55
2022-08-22T08:38:36.511Z,1.80
2022-08-22T08:41:32.921Z,1.60
2022-08-22T08:44:37.896Z,2.25
2022-08-22T08:47:24.142Z,2.30
2022-08-22T08:50:29.290Z,2.15
2022-08-22T08:53:14.997Z,2.00
2022-08-22T08:55:41.541Z,2.05
2022-08-22T08:58:33.719Z,2.40
2022-08-22T09:01:27.526Z,2.00
2022-08-22T09:04:15.334Z,6.03
2022-08-22T09:06:52.878Z,1.95
2022-08-22T09:09:46.607Z,1.77
2022-08-22T09:16:09.936Z,1.60
2022-08-22T09:19:07.183Z,1.70
2022-08-22T09:21:55.639Z,1.95
2022-08-22T09:24:34.429Z,2.42
2022-08-22T09:27:08.974Z,2.28
2022-08-22T09:29:54.864Z,1.80
2022-08-22T09:32:35.766Z,1.92
2022-08-22T09:35:15.579Z,1.70
2022-08-22T09:38:03.084Z,1.95
2022-08-22T09:40:52.210Z,2.15
2022-08-22T09:43:45.157Z,1.80
2022-08-22T09:46:15.089Z,1.52
2022-08-22T09:48:47.229Z,2.40
2022-08-22T09:51:32.220Z,1.83
2022-08-22T09:54:06.226Z,1.67
2022-08-22T09:56:44.740Z,1.90
2022-08-22T09:59:27.984Z,1.63
2022-08-22T10:02:06.802Z,1.90
2022-08-22T10:04:56.306Z,1.90
2022-08-22T10:08:07.746Z,1.90
2022-08-22T10:10:38.123Z,2.13
2022-08-22T10:13:27.019Z,1.92
2022-08-22T10:16:15.025Z,2.17
2022-08-22T10:18:52.810Z,2.22
2022-08-22T10:21:32.673Z,1.70
2022-08-22T10:24:25.446Z,2.17
2022-08-22T10:26:55.859Z,2.05
2022-08-22T10:29:54.351Z,1.92
2022-08-22T10:32:34.542Z,2.15
2022-08-22T10:35:17.498Z,2.20
2022-08-22T10:37:56.477Z,1.83
2022-08-22T10:40:29.351Z,1.60
2022-08-22T10:43:02.775Z,2.00
2022-08-22T10:45:40.583Z,2.17
2022-08-22T10:48:10.461Z,2.38
2022-08-22T10:50:54.999Z,1.97
2022-08-22T10:53:42.748Z,1.90
2022-08-22T10:56:14.009Z,2.13
2022-08-22T10:59:02.364Z,2.00
2022-08-22T11:01:41.577Z,2.30
2022-08-22T11:04:28.184Z,1.70
2022-08-22T11:07:38.214Z,1.55
2022-08-22T11:10:19.241Z,1.92
2022-08-22T11:13:14.068Z,1.85
2022-08-22T11:15:43.663Z,1.80
2022-08-22T11:18:57.956Z,1.60
2022-08-22T11:21:47.611Z,2.28
2022-08-22T11:24:56.752Z,1.60
2022-08-22T11:27:40.165Z,1.52
2022-08-22T11:30:18.594Z,1.70
2022-08-22T11:33:02.206Z,1.93
2022-08-22T11:35:41.763Z,1.83
2022-08-22T11:38:49.610Z,1.30
2022-08-22T11:41:28.393Z,1.52
2022-08-22T11:44:15.794Z,2.05
2022-08-22T11:46:50.365Z,2.10
2022-08-22T11:49:42.654Z,1.67
2022-08-22T11:52:51.699Z,2.15
2022-08-22T11:55:24.076Z,2.35
2022-08-22T11:58:31.829Z,1.75
2022-08-22T12:01:21.987Z,1.63
2022-08-22T12:04:04.794Z,1.75
2022-08-22T12:06:55.884Z,1.90
2022-08-22T12:09:43.249Z,1.90
2022-08-22T12:12:23.268Z,2.33
2022-08-22T12:15:30.460Z,1.83
2022-08-22T12:18:21.217Z,1.67
2022-08-22T12:21:14.029Z,2.08
2022-08-22T12:23:55.814Z,1.67
2022-08-22T12:26:50.570Z,1.80
2022-08-22T12:29:54.138Z,1.60
2022-08-22T12:32:39.266Z,1.75
2022-08-22T12:35:16.572Z,1.83
2022-08-22T12:38:26.533Z,1.63
2022-08-22T12:41:34.938Z,1.35
2022-08-22T12:44:26.671Z,1.80
2022-08-22T12:47:22.458Z,1.80
2022-08-22T12:50:19.954Z,2.15
2022-08-22T12:52:51.046Z,1.90
2022-08-22T12:55:48.770Z,1.80
2022-08-22T12:58:24.248Z,1.53
2022-08-22T13:00:52.542Z,1.45
2022-08-22T13:03:28.163Z,2.08
2022-08-22T13:06:00.580Z,1.45
2022-08-22T13:08:33.462Z,1.58
2022-08-22T13:11:10.045Z,1.40
2022-08-22T13:13:56.647Z,1.73
2022-08-22T13:16:25.595Z,1.48
2022-08-22T13:19:00.571Z,2.05
2022-08-22T13:21:39.663Z,2.05
2022-08-22T13:24:22.547Z,1.87
2022-08-22T13:27:02.222Z,1.95
2022-08-22T13:29:53.633Z,1.63
2022-08-22T13:32:30.911Z,1.52
2022-08-22T13:34:59.679Z,2.00
2022-08-22T13:37:35.488Z,2.17
2022-08-22T13:40:08.741Z,1.83
2022-08-22T13:42:45.550Z,1.67
2022-08-22T13:45:25.806Z,2.05
2022-08-22T13:47:59.497Z,2.10
2022-08-22T13:50:35.828Z,1.97
2022-08-22T13:53:50.078Z,1.92
2022-08-22T13:56:50.673Z,1.80
2022-08-22T13:59:49.427Z,1.60
2022-08-22T14:02:34.186Z,2.03
2022-08-22T14:05:06.882Z,1.80
2022-08-22T14:07:38.776Z,1.50
2022-08-22T14:10:14.774Z,1.77
2022-08-22T14:13:09.024Z,1.77
2022-08-22T14:15:44.899Z,2.42
2022-08-22T14:18:31.455Z,1.67
2022-08-22T14:21:40.501Z,1.58
2022-08-22T14:24:25.776Z,1.73
2022-08-22T14:27:06.423Z,1.95
2022-08-22T14:29:38.857Z,1.70
2022-08-22T14:32:13.818Z,1.40
2022-08-22T14:34:45.332Z,2.08
2022-08-22T14:37:28.849Z,1.33
2022-08-22T14:40:02.014Z,1.73
2022-08-22T14:42:50.775Z,2.00
2022-08-22T14:45:25.393Z,2.10
2022-08-22T14:48:30.987Z,1.20
2022-08-22T14:51:10.225Z,1.83
2022-08-22T14:53:39.939Z,1.90
2022-08-22T14:56:22.859Z,2.28
2022-08-22T14:58:56.090Z,1.57
2022-08-22T15:01:26.410Z,2.08
2022-08-22T15:04:01.508Z,2.08
2022-08-22T15:06:36.064Z,2.22
2022-08-22T15:09:22.611Z,2.05
2022-08-22T15:11:49.488Z,2.30
2022-08-22T15:14:26.204Z,2.13
2022-08-22T15:16:56.062Z,2.28
2022-08-22T15:19:42.273Z,1.67
2022-08-22T15:22:17.090Z,2.65
2022-08-22T15:24:51.895Z,2.17
2022-08-22T15:27:25.334Z,2.13
2022-08-22T15:30:00.627Z,1.80
2022-08-22T15:32:31.849Z,1.83
2022-08-22T15:35:08.934Z,2.40
2022-08-22T15:37:54.079Z,2.03
2022-08-22T15:40:41.215Z,2.20
2022-08-22T15:43:20.122Z,1.50
2022-08-22T15:45:47.940Z,1.60
2022-08-22T15:48:29.750Z,1.65
2022-08-22T15:51:10.400Z,2.10
2022-08-22T15:53:43.212Z,2.00
2022-08-22T15:56:12.651Z,2.22
2022-08-22T15:58:48.090Z,2.05
2022-08-22T16:01:19.824Z,2.28
2022-08-22T16:04:02.037Z,2.13
2022-08-22T16:06:50.484Z,2.10
2022-08-22T16:09:40.749Z,2.13
2022-08-22T16:12:35.539Z,1.95
2022-08-22T16:15:05.379Z,1.95
2022-08-22T16:17:31.798Z,1.90
2022-08-22T16:20:19.742Z,2.33
2022-08-22T16:22:58.963Z,1.60
2022-08-22T16:25:44.318Z,2.10
2022-08-22T16:28:54.309Z,1.92
2022-08-22T16:31:24.547Z,1.90
2022-08-22T16:33:51.349Z,2.00
2022-08-22T16:36:21.027Z,2.42
2022-08-22T16:38:52.235Z,1.80
2022-08-22T16:41:43.309Z,1.85
2022-08-22T16:44:15.871Z,2.20
2022-08-22T16:46:46.018Z,1.80
2022-08-22T16:49:29.456Z,2.17
2022-08-22T16:52:20.996Z,2.03
2022-08-22T16:54:50.405Z,1.90
2022-08-22T16:57:59.304Z,1.70
2022-08-22T17:00:49.715Z,1.98
2022-08-22T17:03:19.339Z,2.10
2022-08-22T17:06:02.495Z,1.67
2022-08-22T17:08:49.059Z,2.10
2022-08-22T17:11:33.663Z,2.10
2022-08-22T17:14:17.530Z,1.88
2022-08-22T17:17:02.310Z,2.20
2022-08-22T17:19:43.255Z,2.17
2022-08-22T17:22:18.750Z,2.08
2022-08-22T17:24:50.917Z,1.73
2022-08-22T17:27:27.960Z,1.90
2022-08-22T17:30:12.005Z,1.88
2022-08-22T17:33:02.595Z,1.95
2022-08-22T17:36:26.493Z,2.28
2022-08-22T17:38:59.793Z,1.90
2022-08-22T17:41:47.567Z,1.67
2022-08-22T17:44:24.341Z,1.48
2022-08-22T17:47:15.011Z,2.00
2022-08-22T17:49:41.491Z,2.47
2022-08-22T17:52:25.080Z,1.93
2022-08-22T17:55:01.292Z,1.85
2022-08-22T17:57:34.038Z,1.67
2022-08-22T18:00:28.339Z,1.83
2022-08-22T18:03:13.454Z,1.83
2022-08-22T18:06:04.209Z,2.00
2022-08-22T18:11:41.363Z,2.03
2022-08-22T18:14:18.438Z,1.60
2022-08-22T18:16:48.489Z,2.15
2022-08-22T18:19:23.874Z,2.10
2022-08-22T18:21:58.822Z,1.83
2022-08-22T18:24:35.134Z,2.15
2022-08-22T18:27:09.332Z,2.58
2022-08-22T18:30:16.563Z,1.90
2022-08-22T18:33:05.990Z,2.20
2022-08-22T18:35:53.801Z,1.88
2022-08-22T18:38:24.204Z,2.00
2022-08-22T18:41:19.703Z,1.63
2022-08-22T18:43:48.330Z,2.40
2022-08-22T18:46:31.634Z,1.83
2022-08-22T18:49:18.054Z,2.17
2022-08-22T18:51:44.737Z,2.25
2022-08-22T18:54:11.488Z,1.90
2022-08-22T18:56:43.606Z,1.83
2022-08-22T18:59:22.281Z,1.93
2022-08-22T19:02:26.317Z,1.90
2022-08-22T19:05:21.692Z,2.40
2022-08-22T19:08:12.651Z,2.20
2022-08-22T19:10:55.224Z,2.58
2022-08-22T19:13:46.234Z,1.80
2022-08-22T19:16:38.299Z,2.22
2022-08-22T19:19:17.861Z,2.38
2022-08-22T19:22:23.174Z,2.70
2022-08-22T19:25:19.187Z,2.85
2022-08-22T19:28:14.268Z,2.40
2022-08-22T19:30:50.086Z,2.80
2022-08-22T19:33:34.521Z,2.92
2022-08-22T19:36:11.511Z,2.58
2022-08-22T19:38:57.431Z,3.03
2022-08-22T19:41:59.748Z,3.00
2022-08-22T19:44:26.150Z,2.67
2022-08-22T19:47:26.991Z,2.80
2022-08-22T19:50:00.902Z,2.80
2022-08-22T19:52:51.899Z,2.20
2022-08-22T19:55:44.996Z,3.20
2022-08-22T19:58:33.012Z,2.88
2022-08-22T20:01:35.427Z,3.40
2022-08-22T20:04:20.634Z,3.17
2022-08-22T20:07:05.047Z,2.97
2022-08-22T20:10:05.392Z,3.13
2022-08-22T20:12:55.374Z,3.45
2022-08-22T20:15:24.321Z,2.67
2022-08-22T20:20:56.461Z,3.13
2022-08-22T20:23:28.766Z,2.87
2022-08-22T20:25:57.137Z,3.45
2022-08-22T20:28:48.861Z,3.33
2022-08-22T20:31:22.115Z,2.63
2022-08-22T20:33:55.238Z,3.55
2022-08-22T20:36:27.565Z,3.10
2022-08-22T20:39:00.658Z,3.00
2022-08-22T20:41:34.151Z,3.60
2022-08-22T20:44:00.692Z,3.28
2022-08-22T20:46:55.178Z,3.63
2022-08-22T20:49:34.414Z,3.13
2022-08-22T20:52:03.548Z,3.50
2022-08-22T20:54:40.988Z,3.22
2022-08-22T20:57:10.479Z,2.97
2022-08-22T20:59:41.622Z,3.05
2022-08-22T21:02:28.631Z,3.40
2022-08-22T21:05:03.716Z,3.22
2022-08-22T21:07:33.822Z,3.63
2022-08-22T21:10:28.422Z,3.38
2022-08-22T21:13:07.630Z,3.83
2022-08-22T21:15:46.595Z,3.40
2022-08-22T21:18:23.338Z,3.55
2022-08-22T21:20:50.687Z,3.53
2022-08-22T21:23:17.681Z,3.67
2022-08-22T21:26:04.398Z,3.80
2022-08-22T21:28:35.449Z,3.70
2022-08-22T21:31:13.182Z,3.60
2022-08-22T21:33:42.863Z,3.42
2022-08-22T21:36:12.566Z,2.83
2022-08-22T21:38:40.629Z,3.70
2022-08-22T21:41:07.433Z,3.20
2022-08-22T21:43:37.840Z,3.30
2022-08-22T21:46:06.925Z,3.65
2022-08-22T21:48:35.198Z,5.40
2022-08-22T21:51:42.274Z,3.58
2022-08-22T21:54:30.350Z,4.10
2022-08-22T21:57:16.115Z,4.30
2022-08-22T21:59:51.894Z,3.90
2022-08-22T22:02:41.159Z,3.72
2022-08-22T22:05:11.283Z,3.97
2022-08-22T22:07:40.342Z,3.83
2022-08-22T22:10:10.375Z,4.43
2022-08-22T22:12:41.897Z,4.22
2022-08-22T22:15:12.614Z,4.00
2022-08-22T22:17:39.337Z,3.60
2022-08-22T22:20:07.085Z,3.53
2022-08-22T22:22:33.539Z,4.55
2022-08-22T22:25:04.281Z,4.35
2022-08-22T22:27:31.678Z,4.40
2022-08-22T22:29:58.390Z,4.05
2022-08-22T22:32:24.921Z,4.40
2022-08-22T22:34:51.487Z,3.75
2022-08-22T22:37:18.554Z,3.80
2022-08-22T22:39:45.161Z,3.80
2022-08-22T22:42:11.669Z,3.90
2022-08-22T22:44:38.130Z,4.70
2022-08-22T22:47:04.938Z,4.32
2022-08-22T22:49:32.521Z,4.18
2022-08-22T22:52:00.011Z,4.03
2022-08-22T22:54:34.319Z,4.55
2022-08-22T22:57:00.830Z,4.67
2022-08-22T22:59:27.692Z,5.50
2022-08-22T23:02:08.084Z,4.80
2022-08-22T23:04:37.982Z,5.70
2022-08-22T23:07:05.803Z,5.50
2022-08-22T23:09:38.755Z,5.57
2022-08-22T23:12:12.399Z,4.93
2022-08-22T23:14:38.881Z,4.45
2022-08-22T23:17:05.671Z,5.38
2022-08-22T23:19:33.091Z,5.00
2022-08-22T23:22:00.964Z,4.33
2022-08-22T23:24:30.032Z,4.38
2022-08-22T23:26:57.315Z,4.93
2022-08-22T23:29:24.118Z,4.80
2022-08-22T23:31:56.558Z,4.60
2022-08-22T23:34:25.891Z,4.30
2022-08-22T23:36:54.781Z,4.90
2022-08-22T23:39:22.967Z,5.50
2022-08-22T23:41:49.670Z,5.28
2022-08-22T23:44:19.035Z,5.45
2022-08-22T23:46:46.297Z,5.53
2022-08-22T23:49:13.970Z,4.95
2022-08-22T23:51:41.564Z,5.00
2022-08-22T23:54:08.154Z,4.88
2022-08-22T23:56:38.975Z,5.03
2022-08-22T23:59:09.438Z,5.50
